Time;durP1;ratioP1;P1;durP2;ratioP2;P2;SDS_P1;SDS_P2;PMS_P1;PMS_P2;Temp;Humidity;BMP_temperature;BMP_pressure;BME280_temperature;BME280_humidity;BME280_pressure;Samples;Min_cycle;Max_cycle;Signal;HPM_P1;HPM_P2
2024/04/14 00:00:43;;;;;;;5.53;1.70;;;;;;;15.18;88.91;101472.53;5414435;26;20465;-71
2024/04/14 00:03:08;;;;;;;9.15;1.98;;;;;;;15.12;89.34;101473.16;5401592;26;20015;-71
2024/04/14 00:05:35;;;;;;;3.03;1.70;;;;;;;15.05;89.49;101466.88;5405676;26;20028;-71
2024/04/14 00:08:00;;;;;;;7.68;1.98;;;;;;;15.04;89.76;101471.28;5410069;26;20347;-71
2024/04/14 00:10:25;;;;;;;2.95;1.52;;;;;;;15.01;90.17;101473.38;5399048;26;20012;-71
2024/04/14 00:12:51;;;;;;;10.18;1.80;;;;;;;14.94;90.37;101466.09;5407436;26;20007;-70
2024/04/14 00:15:16;;;;;;;6.70;2.10;;;;;;;14.93;90.87;101464.44;5403562;26;20355;-70
2024/04/14 00:17:42;;;;;;;2.28;1.35;;;;;;;14.91;90.92;101458.53;5415798;26;20095;-71
2024/04/14 00:20:10;;;;;;;3.33;1.63;;;;;;;14.87;91.36;101459.78;5406260;26;20026;-71
2024/04/14 00:22:35;;;;;;;5.68;2.03;;;;;;;15.05;92.23;101461.63;5414687;26;20026;-71
2024/04/14 00:25:01;;;;;;;2.92;1.65;;;;;;;15.25;90.97;101452.59;5400982;26;20008;-71
2024/04/14 00:27:26;;;;;;;2.55;1.55;;;;;;;15.27;89.72;101461.97;5408545;26;20004;-71
2024/04/14 00:29:52;;;;;;;8.27;1.77;;;;;;;15.23;90.53;101454.53;5407730;26;20065;-71
2024/04/14 00:32:17;;;;;;;5.10;1.67;;;;;;;15.37;90.04;101455.81;5413050;26;20011;-71
2024/04/14 00:34:42;;;;;;;3.60;1.85;;;;;;;15.63;87.90;101453.25;5404319;26;20018;-71
2024/04/14 00:37:08;;;;;;;8.25;2.00;;;;;;;15.78;87.34;101449.91;5416840;26;20045;-71
2024/04/14 00:39:33;;;;;;;3.88;2.17;;;;;;;15.81;88.20;101444.34;5405850;26;20030;-71
2024/04/14 00:42:00;;;;;;;2.88;1.67;;;;;;;15.87;88.30;101448.16;5409238;26;20088;-71
2024/04/14 00:44:26;;;;;;;3.60;1.90;;;;;;;15.99;87.45;101439.03;5407739;26;20019;-71
2024/04/14 00:46:51;;;;;;;5.57;1.67;;;;;;;16.16;86.32;101440.75;5414609;26;20003;-70
2024/04/14 00:49:18;;;;;;;2.13;1.30;;;;;;;16.32;85.61;101432.13;5411912;26;20003;-71
2024/04/14 00:51:43;;;;;;;4.05;1.67;;;;;;;16.38;85.65;101441.19;5413045;26;20090;-70
2024/04/14 00:54:11;;;;;;;5.63;1.63;;;;;;;16.39;85.33;101437.56;5414454;26;20023;-71
2024/04/14 00:56:36;;;;;;;2.38;1.48;;;;;;;16.39;84.71;101441.03;5414767;26;20011;-71
2024/04/14 00:59:02;;;;;;;7.57;1.55;;;;;;;16.27;85.11;101432.59;5407514;26;20002;-70
2024/04/14 01:01:27;;;;;;;3.63;1.73;;;;;;;16.27;85.99;101429.97;5407161;26;20019;-71
2024/04/14 01:03:53;;;;;;;4.85;1.67;;;;;;;16.31;85.19;101446.25;5407685;26;20049;-71
2024/04/14 01:06:19;;;;;;;3.85;1.67;;;;;;;16.26;86.19;101438.81;5410183;26;20339;-70
2024/04/14 01:08:45;;;;;;;3.70;1.50;;;;;;;16.24;86.72;101432.91;5411152;26;20016;-70
2024/04/14 01:11:10;;;;;;;2.80;1.60;;;;;;;16.19;86.74;101432.56;5410641;26;20000;-71
2024/04/14 01:13:36;;;;;;;4.43;2.00;;;;;;;16.16;87.19;101434.66;5411049;26;20084;-70
2024/04/14 01:16:01;;;;;;;3.45;1.90;;;;;;;16.12;87.10;101434.16;5399324;26;20012;-70
2024/04/14 01:18:27;;;;;;;7.05;1.75;;;;;;;16.10;86.77;101428.22;5412260;26;20444;-70
2024/04/14 01:20:52;;;;;;;6.20;2.10;;;;;;;16.16;86.92;101430.22;5412519;26;20008;-70
2024/04/14 01:23:18;;;;;;;4.63;1.88;;;;;;;16.18;86.21;101430.91;5403523;26;20026;-70
2024/04/14 01:25:43;;;;;;;6.35;1.92;;;;;;;16.21;85.70;101429.75;5407412;26;20021;-70
2024/04/14 01:28:08;;;;;;;6.05;2.08;;;;;;;16.23;86.09;101435.69;5414529;26;20413;-70
2024/04/14 01:30:34;;;;;;;4.22;2.28;;;;;;;16.18;86.11;101425.66;5412504;26;20455;-70
2024/04/14 01:32:59;;;;;;;4.63;1.77;;;;;;;16.21;86.71;101427.97;5413852;26;20007;-70
2024/04/14 01:35:24;;;;;;;3.47;1.65;;;;;;;16.21;86.50;101432.41;5405135;26;20008;-68
2024/04/14 01:37:50;;;;;;;5.72;1.63;;;;;;;16.20;86.23;101422.84;5408695;26;20400;-70
2024/04/14 01:40:17;;;;;;;3.42;1.50;;;;;;;16.21;85.84;101430.59;5412355;26;20003;-69
2024/04/14 01:42:43;;;;;;;4.80;1.85;;;;;;;16.22;85.67;101426.97;5411831;26;20005;-70
2024/04/14 01:45:09;;;;;;;4.45;1.98;;;;;;;16.18;85.46;101425.66;5400727;26;20018;-70
2024/04/14 01:47:37;;;;;;;3.35;1.85;;;;;;;16.19;86.05;101423.84;5408805;26;20003;-70
2024/04/14 01:50:02;;;;;;;2.63;1.85;;;;;;;16.21;85.69;101435.03;5406555;26;20020;-70
2024/04/14 01:52:28;;;;;;;2.85;1.35;;;;;;;16.22;85.64;101428.78;5408128;26;24900;-69
2024/04/14 01:54:53;;;;;;;3.08;1.58;;;;;;;16.19;85.65;101434.34;5411830;26;20019;-70
2024/04/14 01:57:19;;;;;;;2.17;1.42;;;;;;;16.14;86.02;101432.19;5409250;26;20018;-69
2024/04/14 01:59:44;;;;;;;3.13;1.73;;;;;;;16.12;86.00;101435.97;5417828;26;20011;-70
2024/04/14 02:02:10;;;;;;;6.35;1.60;;;;;;;16.07;86.41;101431.16;5412417;26;20339;-70
2024/04/14 02:04:35;;;;;;;4.70;1.83;;;;;;;16.03;86.80;101432.50;5412774;26;20039;-70
2024/04/14 02:07:00;;;;;;;4.05;1.75;;;;;;;16.01;87.53;101433.63;5412647;26;20003;-70
2024/04/14 02:09:26;;;;;;;4.50;1.50;;;;;;;15.99;87.37;101431.16;5410708;26;21566;-70
2024/04/14 02:11:51;;;;;;;2.05;1.60;;;;;;;16.01;87.37;101433.63;5412293;26;20011;-70
2024/04/14 02:14:17;;;;;;;3.50;1.67;;;;;;;15.96;86.68;101426.22;5409703;26;20022;-70
2024/04/14 02:16:42;;;;;;;4.22;2.10;;;;;;;15.83;86.33;101431.88;5412610;26;20377;-71
2024/04/14 02:19:08;;;;;;;4.25;2.25;;;;;;;15.49;87.76;101431.78;5409370;26;20401;-70
2024/04/14 02:21:33;;;;;;;5.07;2.20;;;;;;;15.41;88.05;101433.53;5401606;26;20022;-71
2024/04/14 02:23:59;;;;;;;5.28;1.80;;;;;;;15.27;88.52;101440.97;5406675;26;20011;-70
2024/04/14 02:26:24;;;;;;;3.13;1.92;;;;;;;15.22;89.21;101435.34;5407354;26;20359;-70
2024/04/14 02:28:49;;;;;;;3.83;2.08;;;;;;;15.41;89.26;101423.03;5410424;26;20004;-70
2024/04/14 02:31:15;;;;;;;2.58;1.85;;;;;;;15.56;88.12;101425.00;5412091;26;20027;-69
2024/04/14 02:33:41;;;;;;;6.85;2.08;;;;;;;15.61;88.47;101424.50;5409151;26;20323;-70
2024/04/14 02:36:07;;;;;;;6.85;1.85;;;;;;;15.68;88.11;101425.53;5412998;26;20064;-70
2024/04/14 02:38:32;;;;;;;4.75;1.70;;;;;;;15.70;88.31;101425.38;5408636;26;20022;-70
2024/04/14 02:41:02;;;;;;;3.42;1.70;;;;;;;15.71;88.49;101421.78;5409353;26;20083;-70
2024/04/14 02:43:29;;;;;;;3.40;2.13;;;;;;;15.72;87.91;101415.53;5400925;26;20455;-70
2024/04/14 02:45:55;;;;;;;3.70;2.10;;;;;;;15.74;88.29;101418.84;5407909;26;20308;-71
2024/04/14 02:48:21;;;;;;;3.83;1.73;;;;;;;15.71;88.12;101412.09;5403285;26;20031;-70
2024/04/14 02:50:47;;;;;;;4.82;1.98;;;;;;;15.74;87.59;101418.84;5408552;26;20012;-69
2024/04/14 02:53:13;;;;;;;3.47;1.85;;;;;;;15.73;87.81;101420.66;5411450;26;20012;-68
2024/04/14 02:55:39;;;;;;;6.15;2.35;;;;;;;15.72;88.38;101418.16;5414615;26;20007;-69
2024/04/14 02:58:05;;;;;;;4.45;2.10;;;;;;;15.64;88.66;101410.22;5411541;26;20011;-69
2024/04/14 03:00:31;;;;;;;3.85;2.05;;;;;;;15.59;87.87;101414.19;5411938;26;20036;-71
2024/04/14 03:02:56;;;;;;;4.15;1.58;;;;;;;15.61;88.32;101411.38;5415894;26;20011;-70
2024/04/14 03:05:23;;;;;;;4.30;2.05;;;;;;;15.61;88.48;101411.38;5415942;26;20018;-70
2024/04/14 03:07:51;;;;;;;2.58;1.48;;;;;;;15.63;89.12;101419.09;5410607;26;20088;-69
2024/04/14 03:10:17;;;;;;;5.13;2.20;;;;;;;15.62;88.80;101420.06;5402870;26;20025;-70
2024/04/14 03:12:44;;;;;;;2.95;1.48;;;;;;;15.57;89.16;101416.13;5406101;26;20008;-70
2024/04/14 03:15:10;;;;;;;6.97;1.98;;;;;;;15.56;89.32;101411.84;5409929;26;20017;-71
2024/04/14 03:17:36;;;;;;;2.72;1.90;;;;;;;15.53;88.75;101406.06;5407508;26;20007;-70
2024/04/14 03:20:02;;;;;;;3.85;1.98;;;;;;;15.45;88.52;101406.00;5408951;26;20008;-71
2024/04/14 03:22:27;;;;;;;2.92;1.45;;;;;;;15.31;88.65;101409.97;5411911;26;20023;-70
2024/04/14 03:24:52;;;;;;;3.45;1.90;;;;;;;15.05;89.40;101409.13;5406370;26;20007;-71
2024/04/14 03:27:18;;;;;;;3.53;1.67;;;;;;;14.86;90.81;101410.09;5411265;26;20024;-71
2024/04/14 03:29:45;;;;;;;3.83;1.90;;;;;;;14.93;90.42;101406.72;5409698;26;20007;-71
2024/04/14 03:32:11;;;;;;;5.05;2.45;;;;;;;14.82;91.46;101411.34;5406428;26;20061;-71
2024/04/14 03:34:36;;;;;;;5.60;2.28;;;;;;;14.86;91.44;101410.09;5407549;26;20019;-69
2024/04/14 03:37:02;;;;;;;5.18;2.20;;;;;;;15.01;90.51;101415.66;5408648;26;20019;-71
2024/04/14 03:39:28;;;;;;;2.70;2.05;;;;;;;15.09;90.48;101411.31;5407489;26;20012;-71
2024/04/14 03:41:55;;;;;;;3.17;2.03;;;;;;;15.16;90.55;101406.25;5408873;26;20007;-71
2024/04/14 03:44:20;;;;;;;3.22;2.33;;;;;;;15.21;90.56;101415.31;5406877;26;20018;-69
2024/04/14 03:46:46;;;;;;;6.07;2.10;;;;;;;15.17;90.00;101415.78;5414809;26;20011;-71
2024/04/14 03:49:11;;;;;;;6.20;2.28;;;;;;;15.13;91.16;101411.78;5408160;26;20191;-70
2024/04/14 03:51:37;;;;;;;5.35;1.92;;;;;;;15.09;91.27;101410.47;5407037;26;20015;-71
2024/04/14 03:54:02;;;;;;;2.78;1.90;;;;;;;15.09;92.11;101397.34;5401423;26;20008;-71
2024/04/14 03:56:28;;;;;;;8.25;2.15;;;;;;;15.05;92.36;101409.94;5406299;26;20041;-70
2024/04/14 03:58:53;;;;;;;3.15;1.80;;;;;;;15.03;92.92;101411.91;5409379;26;20016;-71
2024/04/14 04:01:18;;;;;;;3.70;2.00;;;;;;;15.05;92.05;101409.13;5412653;26;20004;-70
2024/04/14 04:03:44;;;;;;;3.83;2.30;;;;;;;14.97;91.31;101407.25;5410453;26;20007;-71
2024/04/14 04:06:09;;;;;;;4.95;2.40;;;;;;;14.81;91.54;101413.16;5409581;26;20047;-70
2024/04/14 04:08:35;;;;;;;5.13;2.05;;;;;;;14.58;92.27;101406.72;5409459;26;20085;-69
2024/04/14 04:11:05;;;;;;;4.68;2.40;;;;;;;14.57;93.42;101408.50;5405582;26;20023;-70
2024/04/14 04:13:32;;;;;;;5.97;2.30;;;;;;;14.68;92.96;101410.06;5406727;26;20003;-71
2024/04/14 04:16:07;;;;;;;5.30;2.72;;;;;;;14.79;93.18;101407.22;5410954;26;20369;-70
2024/04/14 04:18:34;;;;;;;8.95;2.50;;;;;;;14.82;92.07;101409.56;5408478;26;20441;-69
2024/04/14 04:21:01;;;;;;;5.00;2.45;;;;;;;14.92;91.85;101410.31;5405908;26;20026;-70
2024/04/14 04:23:27;;;;;;;5.50;2.10;;;;;;;15.00;92.03;101406.13;5395037;26;20008;-71
2024/04/14 04:25:57;;;;;;;4.55;1.98;;;;;;;15.05;91.74;101403.88;5409147;26;20057;-70
2024/04/14 04:28:23;;;;;;;6.18;2.00;;;;;;;15.05;92.24;101403.88;5412867;26;20042;-71
2024/04/14 04:30:50;;;;;;;5.53;2.05;;;;;;;15.05;91.95;101406.50;5402407;26;20019;-71
2024/04/14 04:33:15;;;;;;;6.53;2.22;;;;;;;15.08;92.18;101406.19;5403926;26;20015;-69
2024/04/14 04:35:59;;;;;;;5.03;2.17;;;;;;;15.06;91.12;101405.53;5404470;26;20004;-71
2024/04/14 04:38:25;;;;;;;6.47;2.72;;;;;;;14.96;91.45;101410.03;5407714;26;20007;-72
2024/04/14 04:40:52;;;;;;;5.78;2.50;;;;;;;14.78;91.96;101415.25;5407833;26;20035;-71
2024/04/14 04:43:18;;;;;;;2.70;1.60;;;;;;;14.68;92.74;101415.31;5404774;26;20050;-70
2024/04/14 04:45:44;;;;;;;4.65;2.47;;;;;;;14.63;93.14;101414.97;5405397;26;20106;-68
2024/04/14 04:48:09;;;;;;;4.28;2.35;;;;;;;14.71;93.15;101422.06;5404794;26;20015;-71
2024/04/14 04:50:35;;;;;;;4.60;1.90;;;;;;;14.81;93.46;101421.03;5407136;26;20004;-70
2024/04/14 04:53:02;;;;;;;4.80;2.45;;;;;;;14.91;92.58;101419.16;5410637;26;20021;-70
2024/04/14 04:55:27;;;;;;;8.23;2.42;;;;;;;14.95;92.37;101422.31;5406076;26;20003;-69
2024/04/14 04:57:53;;;;;;;3.28;1.98;;;;;;;15.00;92.35;101419.25;5409765;26;20007;-71
2024/04/14 05:00:18;;;;;;;5.32;1.80;;;;;;;15.01;92.64;101423.53;5413680;26;20011;-70
2024/04/14 05:02:44;;;;;;;4.88;2.20;;;;;;;15.04;92.72;101417.97;5409091;26;20011;-69
2024/04/14 05:05:09;;;;;;;5.30;2.15;;;;;;;15.06;92.23;101422.09;5406467;26;20538;-70
2024/04/14 05:07:34;;;;;;;3.97;2.25;;;;;;;15.06;92.21;101421.28;5409186;26;20004;-70
2024/04/14 05:10:00;;;;;;;5.15;2.17;;;;;;;15.08;92.33;101422.78;5406128;26;20015;-70
2024/04/14 05:12:25;;;;;;;5.60;2.17;;;;;;;15.06;92.69;101423.91;5409017;26;20017;-69
2024/04/14 05:14:51;;;;;;;2.47;1.77;;;;;;;15.04;92.99;101412.72;5411301;26;20008;-72
2024/04/14 05:17:16;;;;;;;2.95;1.85;;;;;;;15.06;92.58;101416.03;5399080;26;20003;-71
2024/04/14 05:19:41;;;;;;;3.00;2.05;;;;;;;15.08;92.25;101416.69;5405858;26;20029;-71
2024/04/14 05:22:07;;;;;;;4.05;2.08;;;;;;;15.14;91.73;101416.91;5407021;26;20018;-71
2024/04/14 05:24:32;;;;;;;3.60;2.47;;;;;;;15.23;91.79;101412.53;5408532;26;20016;-72
2024/04/14 05:26:58;;;;;;;6.60;2.25;;;;;;;15.26;91.90;101426.19;5400112;26;20015;-72
2024/04/14 05:29:25;;;;;;;5.22;2.53;;;;;;;15.29;91.77;101427.69;5410103;26;20076;-71
2024/04/14 05:31:51;;;;;;;4.32;1.73;;;;;;;15.31;91.35;101422.28;5404906;26;20040;-71
2024/04/14 05:34:17;;;;;;;4.30;1.80;;;;;;;15.33;91.19;101426.41;5404172;26;20343;-72
2024/04/14 05:36:44;;;;;;;2.28;1.63;;;;;;;15.35;92.08;101432.34;5407657;26;20026;-71
2024/04/14 05:39:09;;;;;;;6.40;2.53;;;;;;;15.40;91.02;101430.09;5408651;26;20076;-71
2024/04/14 05:41:35;;;;;;;3.90;2.13;;;;;;;15.45;90.67;101427.00;5410643;26;20011;-72
2024/04/14 05:44:00;;;;;;;3.17;2.05;;;;;;;15.50;90.56;101433.44;5408054;26;20044;-71
2024/04/14 05:46:25;;;;;;;2.80;1.73;;;;;;;15.56;90.36;101424.13;5411472;26;20435;-68
2024/04/14 05:48:51;;;;;;;5.47;1.90;;;;;;;15.58;90.33;101425.66;5409156;26;20037;-69
2024/04/14 05:51:16;;;;;;;3.80;2.00;;;;;;;15.63;89.80;101429.59;5403483;26;20345;-69
2024/04/14 05:53:42;;;;;;;2.95;1.98;;;;;;;15.74;88.80;101429.34;5405472;26;20008;-70
2024/04/14 05:56:07;;;;;;;4.00;2.30;;;;;;;15.79;89.18;101420.03;5413220;26;20011;-68
2024/04/14 05:58:33;;;;;;;6.00;2.20;;;;;;;15.80;89.43;101420.84;5407311;26;20435;-68
2024/04/14 06:01:05;;;;;;;4.25;2.60;;;;;;;15.81;88.68;101420.69;5408037;26;20360;-69
2024/04/14 06:03:31;;;;;;;9.05;2.30;;;;;;;15.87;88.96;101430.59;5408834;26;20490;-68
2024/04/14 06:05:57;;;;;;;3.47;1.77;;;;;;;16.01;88.19;101428.38;5408876;26;20035;-69
2024/04/14 06:08:22;;;;;;;2.95;1.92;;;;;;;16.10;87.40;101425.59;5407535;26;20008;-69
2024/04/14 06:10:47;;;;;;;7.90;2.42;;;;;;;16.22;87.12;101426.16;5407016;26;20020;-69
2024/04/14 06:13:13;;;;;;;4.43;2.45;;;;;;;16.34;86.65;101419.63;5407734;26;20008;-68
2024/04/14 06:15:39;;;;;;;5.38;2.30;;;;;;;16.52;85.91;101416.91;5417622;26;20007;-68
2024/04/14 06:18:05;;;;;;;3.47;2.00;;;;;;;16.64;85.02;101420.91;5413636;26;20008;-69
2024/04/14 06:20:30;;;;;;;4.68;2.10;;;;;;;16.71;84.94;101419.28;5403833;26;20028;-69
2024/04/14 06:22:56;;;;;;;5.00;2.35;;;;;;;16.79;84.44;101419.28;5407605;26;20016;-69
2024/04/14 06:25:21;;;;;;;3.38;1.50;;;;;;;16.83;83.66;101410.09;5412121;26;20019;-69
2024/04/14 06:27:46;;;;;;;4.70;2.03;;;;;;;16.90;84.17;101411.09;5412209;26;20023;-68
2024/04/14 06:30:12;;;;;;;1.75;1.60;;;;;;;17.07;84.10;101409.28;5408377;26;20074;-68
2024/04/14 06:32:38;;;;;;;3.28;2.20;;;;;;;17.15;83.57;101411.91;5408154;26;20008;-69
2024/04/14 06:35:05;;;;;;;1.80;1.70;;;;;;;17.26;82.94;101402.88;5412491;26;20046;-69
2024/04/14 06:37:31;;;;;;;2.97;2.10;;;;;;;17.32;82.65;101404.84;5418679;26;20408;-68
2024/04/14 06:39:56;;;;;;;5.85;1.63;;;;;;;17.39;82.21;101405.00;5410021;26;20011;-69
2024/04/14 06:42:21;;;;;;;3.10;1.52;;;;;;;17.46;82.05;101401.53;5417394;26;20015;-70
2024/04/14 06:44:47;;;;;;;4.72;1.67;;;;;;;17.58;81.95;101397.53;5413262;26;20070;-69
2024/04/14 06:47:15;;;;;;;7.53;2.13;;;;;;;17.73;81.05;101399.53;5410875;26;21642;-69
2024/04/14 06:49:41;;;;;;;4.70;1.75;;;;;;;17.84;80.18;101400.00;5407434;26;20011;-69
2024/04/14 06:52:06;;;;;;;5.20;1.80;;;;;;;17.94;79.82;101397.19;5403524;26;20339;-69
2024/04/14 06:54:31;;;;;;;4.18;1.80;;;;;;;18.07;80.29;101393.97;5401229;26;20020;-69
2024/04/14 06:56:57;;;;;;;2.22;1.35;;;;;;;18.21;79.11;101396.72;5410267;26;20055;-69
2024/04/14 06:59:22;;;;;;;4.60;1.35;;;;;;;18.32;79.72;101399.97;5409768;26;20015;-68
2024/04/14 07:01:48;;;;;;;4.65;1.23;;;;;;;18.48;79.17;101392.78;5411146;26;20008;-69
2024/04/14 07:04:13;;;;;;;3.38;1.67;;;;;;;18.57;78.10;101398.84;5399543;26;20009;-69
2024/04/14 07:06:39;;;;;;;2.83;1.45;;;;;;;18.65;77.71;101396.19;5410659;26;20007;-68
2024/04/14 07:09:04;;;;;;;3.20;1.48;;;;;;;18.68;78.39;101393.19;5411157;26;20140;-69
2024/04/14 07:11:29;;;;;;;3.05;1.50;;;;;;;18.76;77.42;101385.22;5411866;26;20008;-69
2024/04/14 07:13:55;;;;;;;6.57;1.83;;;;;;;18.84;77.44;101382.53;5410148;26;20084;-69
2024/04/14 07:16:20;;;;;;;2.83;1.73;;;;;;;18.97;76.94;101386.38;5411969;26;20080;-68
2024/04/14 07:18:49;;;;;;;2.47;1.80;;;;;;;19.04;76.24;101384.69;5408267;26;20023;-68
2024/04/14 07:21:14;;;;;;;5.32;1.10;;;;;;;19.14;75.60;101382.63;5411863;26;20003;-68
2024/04/14 07:23:39;;;;;;;2.10;1.15;;;;;;;19.22;75.97;101377.25;5410848;26;20040;-69
2024/04/14 07:26:05;;;;;;;3.13;1.45;;;;;;;19.36;75.59;101380.94;5409104;26;20463;-69
2024/04/14 07:28:30;;;;;;;2.97;1.33;;;;;;;19.50;76.27;101373.03;5411751;26;20011;-68
2024/04/14 07:30:56;;;;;;;3.50;1.27;;;;;;;19.64;75.67;101376.72;5413008;26;20016;-68
2024/04/14 07:33:21;;;;;;;2.08;1.30;;;;;;;19.85;74.85;101375.97;5409327;26;20016;-69
2024/04/14 07:35:47;;;;;;;5.55;1.60;;;;;;;20.09;74.30;101382.78;5411727;26;20088;-68
2024/04/14 07:38:13;;;;;;;4.38;1.10;;;;;;;20.15;74.07;101382.88;5398106;26;20015;-69
2024/04/14 07:40:41;;;;;;;2.92;1.90;;;;;;;20.20;73.40;101377.03;5411839;26;20084;-69
2024/04/14 07:43:07;;;;;;;3.92;1.45;;;;;;;20.33;72.63;101373.69;5411927;26;20004;-68
2024/04/14 07:45:34;;;;;;;3.28;1.40;;;;;;;20.50;74.21;101377.81;5408807;26;20466;-69
2024/04/14 07:47:59;;;;;;;2.67;1.73;;;;;;;20.60;73.06;101375.69;5407709;26;20023;-69
2024/04/14 07:50:25;;;;;;;2.50;1.50;;;;;;;20.73;73.06;101381.09;5409054;26;20007;-69
2024/04/14 07:52:50;;;;;;;3.65;1.80;;;;;;;20.91;72.77;101374.53;5412645;26;20007;-68
2024/04/14 07:55:15;;;;;;;1.27;1.00;;;;;;;21.04;72.31;101377.31;5411125;26;20343;-69
2024/04/14 07:57:41;;;;;;;2.83;1.00;;;;;;;21.15;72.46;101382.91;5409071;26;20004;-70
2024/04/14 08:00:07;;;;;;;7.18;2.13;;;;;;;21.30;72.57;101372.22;5412401;26;20019;-69
2024/04/14 08:02:33;;;;;;;3.30;1.40;;;;;;;21.40;72.36;101378.00;5411017;26;20370;-69
2024/04/14 08:04:58;;;;;;;4.13;1.60;;;;;;;21.42;72.36;101375.16;5405523;26;20004;-69
2024/04/14 08:07:24;;;;;;;3.45;2.00;;;;;;;21.56;72.18;101370.78;5412004;26;20080;-69
2024/04/14 08:09:49;;;;;;;2.88;1.05;;;;;;;21.75;70.94;101370.06;5408894;26;20014;-69
2024/04/14 08:12:15;;;;;;;2.95;1.10;;;;;;;21.83;71.32;101367.25;5411512;26;20015;-69
2024/04/14 08:14:40;;;;;;;1.90;0.98;;;;;;;22.00;71.33;101368.56;5407889;26;20004;-70
2024/04/14 08:17:05;;;;;;;3.08;1.45;;;;;;;22.12;70.85;101359.06;5412403;26;20019;-69
2024/04/14 08:19:32;;;;;;;2.00;1.30;;;;;;;22.27;70.77;101364.19;5411379;26;20008;-69
2024/04/14 08:21:57;;;;;;;4.63;1.23;;;;;;;22.09;70.19;101367.41;5410487;26;20017;-69
2024/04/14 08:24:23;;;;;;;3.28;0.95;;;;;;;22.03;70.90;101368.19;5406114;26;20007;-69
2024/04/14 08:26:48;;;;;;;3.47;1.20;;;;;;;22.30;70.07;101366.44;5405031;26;20012;-69
2024/04/14 08:29:13;;;;;;;3.78;1.10;;;;;;;22.55;69.75;101371.22;5405060;26;20007;-69
2024/04/14 08:31:39;;;;;;;2.67;0.90;;;;;;;22.41;69.52;101370.34;5411773;26;20259;-69
2024/04/14 08:34:05;;;;;;;1.65;0.98;;;;;;;22.25;69.63;101371.53;5412642;26;20023;-70
2024/04/14 08:36:30;;;;;;;1.60;0.93;;;;;;;22.48;69.74;101369.38;5410818;26;20019;-69
2024/04/14 08:38:55;;;;;;;4.35;1.38;;;;;;;22.72;69.29;101362.66;5416468;26;20051;-69
2024/04/14 08:41:24;;;;;;;3.45;0.70;;;;;;;22.84;68.38;101368.22;5411034;26;20011;-69
2024/04/14 08:43:53;;;;;;;3.67;1.10;;;;;;;22.82;68.38;101375.56;5411112;26;20011;-69
2024/04/14 08:46:21;;;;;;;3.15;1.35;;;;;;;22.75;67.92;101377.34;5403989;26;20016;-70
2024/04/14 08:48:47;;;;;;;2.95;1.00;;;;;;;22.73;67.54;101380.22;5411918;26;20443;-69
2024/04/14 08:51:14;;;;;;;4.75;1.05;;;;;;;22.67;67.67;101380.25;5411082;26;20035;-70
2024/04/14 08:53:42;;;;;;;3.35;0.93;;;;;;;22.63;67.73;101382.47;5405475;26;20401;-69
2024/04/14 08:56:08;;;;;;;4.72;1.38;;;;;;;22.66;67.79;101386.56;5411071;26;20062;-69
2024/04/14 08:58:34;;;;;;;4.72;1.83;;;;;;;22.73;67.95;101384.72;5411026;26;20015;-69
2024/04/14 09:01:02;;;;;;;3.83;1.60;;;;;;;22.84;67.89;101381.50;5410700;26;20328;-70
2024/04/14 09:03:31;;;;;;;2.15;1.17;;;;;;;22.80;68.17;101386.41;5409592;26;20037;-70
2024/04/14 09:06:03;;;;;;;2.22;1.45;;;;;;;22.77;66.74;101384.09;5410789;26;20007;-70
2024/04/14 09:08:29;;;;;;;7.65;1.33;;;;;;;22.75;67.66;101383.50;5410977;26;20088;-69
2024/04/14 09:10:55;;;;;;;2.85;1.17;;;;;;;22.87;68.06;101385.59;5411070;26;20023;-70
2024/04/14 09:13:24;;;;;;;3.58;1.33;;;;;;;22.91;67.15;101382.31;5410240;26;20011;-70
2024/04/14 09:15:50;;;;;;;3.97;1.40;;;;;;;22.89;66.87;101378.22;5411579;26;20019;-69
2024/04/14 09:18:16;;;;;;;2.70;1.38;;;;;;;23.01;67.65;101388.06;5408270;26;20018;-70
2024/04/14 09:20:41;;;;;;;2.50;1.38;;;;;;;23.03;67.64;101385.19;5408737;26;20360;-69
2024/04/14 09:23:07;;;;;;;2.75;0.95;;;;;;;23.07;67.20;101381.13;5410975;26;20026;-70
2024/04/14 09:25:33;;;;;;;1.60;0.80;;;;;;;23.06;67.34;101382.13;5410470;26;20011;-69
2024/04/14 09:28:03;;;;;;;2.90;1.00;;;;;;;23.09;66.79;101389.69;5410703;26;20004;-69
2024/04/14 09:30:28;;;;;;;2.58;1.08;;;;;;;23.07;66.81;101387.25;5410181;26;20031;-69
2024/04/14 09:32:54;;;;;;;3.50;0.93;;;;;;;23.10;66.97;101391.34;5411104;26;20004;-69
2024/04/14 09:35:20;;;;;;;2.10;0.80;;;;;;;23.06;66.29;101390.09;5409800;26;20019;-69
2024/04/14 09:37:48;;;;;;;5.57;1.00;;;;;;;23.10;66.64;101378.88;5409806;26;20153;-69
2024/04/14 09:40:17;;;;;;;4.20;1.35;;;;;;;23.16;66.25;101382.50;5408617;26;20007;-69
2024/04/14 09:42:43;;;;;;;1.85;1.13;;;;;;;23.23;66.11;101378.00;5404735;26;20007;-69
2024/04/14 09:45:09;;;;;;;1.88;0.95;;;;;;;23.20;65.48;101374.94;5409085;26;20476;-69
2024/04/14 09:47:37;;;;;;;2.42;1.20;;;;;;;23.05;65.87;101370.69;5411408;26;20016;-69
2024/04/14 09:50:05;;;;;;;4.40;1.10;;;;;;;23.04;65.93;101377.03;5409891;26;20020;-69
2024/04/14 09:52:32;;;;;;;1.75;1.08;;;;;;;23.06;65.65;101368.84;5413854;26;20031;-69
2024/04/14 09:54:58;;;;;;;2.10;0.98;;;;;;;23.09;65.40;101368.44;5414366;26;20043;-68
2024/04/14 09:57:24;;;;;;;1.85;1.20;;;;;;;23.17;65.22;101354.91;5409609;26;20084;-68
2024/04/14 09:59:50;;;;;;;2.78;1.30;;;;;;;23.14;64.99;101360.66;5413704;26;20007;-68
2024/04/14 10:02:20;;;;;;;3.08;0.98;;;;;;;23.07;64.92;101359.84;5412754;26;20004;-68
2024/04/14 10:04:49;;;;;;;3.80;1.00;;;;;;;23.04;64.77;101352.28;5387506;26;20355;-69
2024/04/14 10:07:16;;;;;;;2.33;1.17;;;;;;;23.09;64.97;101363.13;5413431;26;20450;-68
2024/04/14 10:09:48;;;;;;;2.10;1.27;;;;;;;23.05;64.65;101356.56;5413949;26;20007;-70
2024/04/14 10:12:23;;;;;;;2.58;1.08;;;;;;;22.86;64.94;101352.06;5413121;26;20022;-69
2024/04/14 10:14:49;;;;;;;1.52;0.88;;;;;;;22.57;64.88;101343.44;5409171;26;20012;-70
2024/04/14 10:17:20;;;;;;;2.03;0.90;;;;;;;22.57;64.63;101340.78;5413033;26;20112;-70
2024/04/14 10:19:59;;;;;;;2.63;0.90;;;;;;;22.75;63.47;101340.16;5413462;26;20135;-70
2024/04/14 10:22:39;;;;;;;3.13;1.10;;;;;;;22.97;63.16;101343.50;5397697;26;20037;-70
2024/04/14 10:25:04;;;;;;;1.80;0.98;;;;;;;22.92;63.77;101335.31;5406778;26;20168;-69
2024/04/14 10:27:33;;;;;;;2.78;1.27;;;;;;;22.90;64.25;101340.00;5416920;26;20003;-70
2024/04/14 10:30:00;;;;;;;1.63;0.75;;;;;;;22.99;63.61;101339.59;5413360;26;20016;-69
2024/04/14 10:32:26;;;;;;;1.92;1.10;;;;;;;22.99;63.82;101341.44;5413020;26;20455;-68
2024/04/14 10:34:52;;;;;;;2.42;1.20;;;;;;;22.97;63.91;101330.22;5409217;26;20104;-69
2024/04/14 10:37:23;;;;;;;4.60;1.35;;;;;;;23.16;62.71;101330.16;5412761;26;20019;-69
2024/04/14 10:39:51;;;;;;;5.93;1.25;;;;;;;23.37;62.16;101328.31;5402264;26;20695;-69
2024/04/14 10:42:17;;;;;;;1.73;1.05;;;;;;;23.37;62.18;101329.13;5412910;26;20008;-69
2024/04/14 10:44:43;;;;;;;3.53;1.42;;;;;;;23.42;61.91;101318.69;5413535;26;20018;-69
2024/04/14 10:47:10;;;;;;;2.95;1.38;;;;;;;23.42;61.85;101325.84;5413310;26;20018;-69
2024/04/14 10:49:36;;;;;;;2.70;0.88;;;;;;;23.32;61.80;101326.28;5413024;26;20008;-68
2024/04/14 10:52:02;;;;;;;6.85;1.13;;;;;;;23.29;61.73;101328.53;5413567;26;20003;-69
2024/04/14 10:54:29;;;;;;;2.10;0.82;;;;;;;23.25;61.18;101324.66;5411432;26;20081;-68
2024/04/14 10:56:54;;;;;;;2.03;0.60;;;;;;;23.15;61.68;101325.91;5412998;26;20023;-68
2024/04/14 10:59:21;;;;;;;3.40;0.98;;;;;;;23.20;61.44;101319.94;5411540;26;20460;-69
2024/04/14 11:01:48;;;;;;;2.63;0.82;;;;;;;23.32;61.31;101314.81;5413533;26;20092;-69
2024/04/14 11:04:16;;;;;;;3.65;1.30;;;;;;;23.43;60.76;101314.19;5405303;26;20008;-68
2024/04/14 11:06:43;;;;;;;1.45;0.60;;;;;;;23.46;60.45;101319.09;5416840;26;20023;-69
2024/04/14 11:09:10;;;;;;;3.75;1.00;;;;;;;23.41;60.83;101319.72;5402848;26;20591;-72
2024/04/14 11:11:37;;;;;;;5.22;1.35;;;;;;;23.46;60.46;101316.44;5401953;26;20008;-72
2024/04/14 11:14:03;;;;;;;2.28;0.77;;;;;;;23.65;59.82;101309.44;5412455;26;20081;-70
2024/04/14 11:16:28;;;;;;;4.20;1.20;;;;;;;23.76;59.63;101311.44;5409052;26;20027;-70
2024/04/14 11:18:56;;;;;;;4.22;1.23;;;;;;;23.77;59.38;101313.88;5412202;26;20008;-69